sensor_id;sensor_type;location;lat;lon;timestamp;P1;durP1;ratioP1;P2;durP2;ratioP2
14169;SDS011;63889;50.596;8.690;2024-02-21T00:01:50;15.85;;;4.05;;
14169;SDS011;63889;50.596;8.690;2024-02-21T00:04:16;15.85;;;4.00;;
14169;SDS011;63889;50.596;8.690;2024-02-21T00:06:41;19.27;;;3.90;;
14169;SDS011;63889;50.596;8.690;2024-02-21T00:09:07;8.43;;;3.22;;
14169;SDS011;63889;50.596;8.690;2024-02-21T00:11:34;12.43;;;3.53;;
14169;SDS011;63889;50.596;8.690;2024-02-21T00:14:00;10.60;;;3.50;;
14169;SDS011;63889;50.596;8.690;2024-02-21T00:16:25;13.75;;;3.30;;
14169;SDS011;63889;50.596;8.690;2024-02-21T00:18:51;9.43;;;3.35;;
14169;SDS011;63889;50.596;8.690;2024-02-21T00:21:16;10.32;;;3.80;;
14169;SDS011;63889;50.596;8.690;2024-02-21T00:23:43;10.68;;;3.10;;
14169;SDS011;63889;50.596;8.690;2024-02-21T00:26:12;17.80;;;4.18;;
14169;SDS011;63889;50.596;8.690;2024-02-21T00:28:39;9.52;;;4.10;;
14169;SDS011;63889;50.596;8.690;2024-02-21T00:31:04;14.85;;;3.92;;
14169;SDS011;63889;50.596;8.690;2024-02-21T00:33:30;12.55;;;3.67;;
14169;SDS011;63889;50.596;8.690;2024-02-21T00:35:55;14.85;;;3.47;;
14169;SDS011;63889;50.596;8.690;2024-02-21T00:38:21;19.38;;;4.40;;
14169;SDS011;63889;50.596;8.690;2024-02-21T00:40:47;13.73;;;3.88;;
14169;SDS011;63889;50.596;8.690;2024-02-21T00:43:12;17.38;;;4.07;;
14169;SDS011;63889;50.596;8.690;2024-02-21T00:45:38;12.32;;;3.63;;
14169;SDS011;63889;50.596;8.690;2024-02-21T00:48:04;9.68;;;3.67;;
14169;SDS011;63889;50.596;8.690;2024-02-21T00:50:29;14.98;;;4.55;;
14169;SDS011;63889;50.596;8.690;2024-02-21T00:52:55;11.95;;;3.65;;
14169;SDS011;63889;50.596;8.690;2024-02-21T00:55:21;8.82;;;3.70;;
14169;SDS011;63889;50.596;8.690;2024-02-21T00:57:46;13.05;;;3.60;;
14169;SDS011;63889;50.596;8.690;2024-02-21T01:00:12;13.63;;;4.75;;
14169;SDS011;63889;50.596;8.690;2024-02-21T01:02:38;16.17;;;4.13;;
14169;SDS011;63889;50.596;8.690;2024-02-21T01:05:04;16.10;;;4.63;;
14169;SDS011;63889;50.596;8.690;2024-02-21T01:07:30;12.70;;;3.90;;
14169;SDS011;63889;50.596;8.690;2024-02-21T01:09:55;12.13;;;3.92;;
14169;SDS011;63889;50.596;8.690;2024-02-21T01:12:21;14.15;;;3.97;;
14169;SDS011;63889;50.596;8.690;2024-02-21T01:14:46;15.98;;;3.97;;
14169;SDS011;63889;50.596;8.690;2024-02-21T01:17:12;12.80;;;4.15;;
14169;SDS011;63889;50.596;8.690;2024-02-21T01:19:38;12.73;;;3.80;;
14169;SDS011;63889;50.596;8.690;2024-02-21T01:22:04;12.73;;;3.25;;
14169;SDS011;63889;50.596;8.690;2024-02-21T01:24:29;12.63;;;3.33;;
14169;SDS011;63889;50.596;8.690;2024-02-21T01:26:55;17.13;;;4.20;;
14169;SDS011;63889;50.596;8.690;2024-02-21T01:29:20;13.05;;;4.10;;
14169;SDS011;63889;50.596;8.690;2024-02-21T01:31:46;11.82;;;3.88;;
14169;SDS011;63889;50.596;8.690;2024-02-21T01:34:12;8.73;;;3.40;;
14169;SDS011;63889;50.596;8.690;2024-02-21T01:36:38;11.80;;;3.78;;
14169;SDS011;63889;50.596;8.690;2024-02-21T01:39:04;15.88;;;4.35;;
14169;SDS011;63889;50.596;8.690;2024-02-21T01:41:30;10.00;;;4.07;;
14169;SDS011;63889;50.596;8.690;2024-02-21T01:43:56;8.90;;;3.80;;
14169;SDS011;63889;50.596;8.690;2024-02-21T01:46:22;17.27;;;3.90;;
14169;SDS011;63889;50.596;8.690;2024-02-21T01:48:52;13.02;;;3.97;;
14169;SDS011;63889;50.596;8.690;2024-02-21T01:51:18;14.55;;;4.15;;
14169;SDS011;63889;50.596;8.690;2024-02-21T01:53:44;12.13;;;3.80;;
14169;SDS011;63889;50.596;8.690;2024-02-21T01:56:10;10.82;;;4.35;;
14169;SDS011;63889;50.596;8.690;2024-02-21T01:58:38;14.80;;;3.97;;
14169;SDS011;63889;50.596;8.690;2024-02-21T02:01:05;12.93;;;3.58;;
14169;SDS011;63889;50.596;8.690;2024-02-21T02:03:31;8.45;;;3.15;;
14169;SDS011;63889;50.596;8.690;2024-02-21T02:05:57;13.23;;;3.42;;
14169;SDS011;63889;50.596;8.690;2024-02-21T02:08:22;10.60;;;3.45;;
14169;SDS011;63889;50.596;8.690;2024-02-21T02:10:48;12.70;;;4.55;;
14169;SDS011;63889;50.596;8.690;2024-02-21T02:13:14;9.77;;;3.17;;
14169;SDS011;63889;50.596;8.690;2024-02-21T02:15:40;12.50;;;3.70;;
14169;SDS011;63889;50.596;8.690;2024-02-21T02:18:07;13.57;;;3.90;;
14169;SDS011;63889;50.596;8.690;2024-02-21T02:20:33;12.35;;;3.67;;
14169;SDS011;63889;50.596;8.690;2024-02-21T02:22:59;13.93;;;3.75;;
14169;SDS011;63889;50.596;8.690;2024-02-21T02:25:26;10.63;;;3.80;;
14169;SDS011;63889;50.596;8.690;2024-02-21T02:27:53;15.60;;;4.07;;
14169;SDS011;63889;50.596;8.690;2024-02-21T02:30:19;13.48;;;3.78;;
14169;SDS011;63889;50.596;8.690;2024-02-21T02:32:45;11.32;;;3.25;;
14169;SDS011;63889;50.596;8.690;2024-02-21T02:35:11;12.55;;;3.88;;
14169;SDS011;63889;50.596;8.690;2024-02-21T02:37:37;11.05;;;3.97;;
14169;SDS011;63889;50.596;8.690;2024-02-21T02:40:04;10.43;;;2.67;;
14169;SDS011;63889;50.596;8.690;2024-02-21T02:42:31;12.18;;;3.55;;
14169;SDS011;63889;50.596;8.690;2024-02-21T02:44:56;13.23;;;3.28;;
14169;SDS011;63889;50.596;8.690;2024-02-21T02:47:22;11.27;;;3.38;;
14169;SDS011;63889;50.596;8.690;2024-02-21T02:49:48;9.02;;;3.10;;
14169;SDS011;63889;50.596;8.690;2024-02-21T02:52:15;9.38;;;3.60;;
14169;SDS011;63889;50.596;8.690;2024-02-21T02:54:42;12.43;;;3.00;;
14169;SDS011;63889;50.596;8.690;2024-02-21T02:57:07;7.72;;;2.67;;
14169;SDS011;63889;50.596;8.690;2024-02-21T02:59:33;13.90;;;3.88;;
14169;SDS011;63889;50.596;8.690;2024-02-21T03:01:58;12.98;;;3.88;;
14169;SDS011;63889;50.596;8.690;2024-02-21T03:04:24;8.05;;;3.17;;
14169;SDS011;63889;50.596;8.690;2024-02-21T03:06:49;16.60;;;3.95;;
14169;SDS011;63889;50.596;8.690;2024-02-21T03:09:15;10.70;;;3.45;;
14169;SDS011;63889;50.596;8.690;2024-02-21T03:11:42;13.88;;;3.75;;
14169;SDS011;63889;50.596;8.690;2024-02-21T03:14:09;11.05;;;3.33;;
14169;SDS011;63889;50.596;8.690;2024-02-21T03:16:35;7.70;;;3.30;;
14169;SDS011;63889;50.596;8.690;2024-02-21T03:19:00;13.40;;;3.33;;
14169;SDS011;63889;50.596;8.690;2024-02-21T03:21:26;8.07;;;4.00;;
14169;SDS011;63889;50.596;8.690;2024-02-21T03:23:51;9.60;;;3.58;;
14169;SDS011;63889;50.596;8.690;2024-02-21T03:26:17;10.52;;;3.17;;
14169;SDS011;63889;50.596;8.690;2024-02-21T03:28:43;9.55;;;2.78;;
14169;SDS011;63889;50.596;8.690;2024-02-21T03:31:11;5.22;;;2.53;;
14169;SDS011;63889;50.596;8.690;2024-02-21T03:33:38;14.95;;;3.75;;
14169;SDS011;63889;50.596;8.690;2024-02-21T03:36:12;8.75;;;3.25;;
14169;SDS011;63889;50.596;8.690;2024-02-21T03:38:38;8.77;;;3.13;;
14169;SDS011;63889;50.596;8.690;2024-02-21T03:41:04;8.80;;;3.03;;
14169;SDS011;63889;50.596;8.690;2024-02-21T03:43:29;6.82;;;3.25;;
14169;SDS011;63889;50.596;8.690;2024-02-21T03:45:55;7.15;;;3.53;;
14169;SDS011;63889;50.596;8.690;2024-02-21T03:48:20;10.10;;;2.88;;
14169;SDS011;63889;50.596;8.690;2024-02-21T03:50:46;14.18;;;3.72;;
14169;SDS011;63889;50.596;8.690;2024-02-21T03:53:11;12.25;;;3.03;;
14169;SDS011;63889;50.596;8.690;2024-02-21T03:55:37;6.57;;;3.47;;
14169;SDS011;63889;50.596;8.690;2024-02-21T03:58:03;12.57;;;2.88;;
14169;SDS011;63889;50.596;8.690;2024-02-21T04:00:28;16.55;;;4.45;;
14169;SDS011;63889;50.596;8.690;2024-02-21T04:02:54;10.00;;;3.20;;
14169;SDS011;63889;50.596;8.690;2024-02-21T04:05:20;9.95;;;2.75;;
14169;SDS011;63889;50.596;8.690;2024-02-21T04:07:46;12.23;;;3.35;;
14169;SDS011;63889;50.596;8.690;2024-02-21T04:10:12;11.27;;;3.15;;
14169;SDS011;63889;50.596;8.690;2024-02-21T04:12:37;6.63;;;3.13;;
14169;SDS011;63889;50.596;8.690;2024-02-21T04:15:03;9.13;;;3.42;;
14169;SDS011;63889;50.596;8.690;2024-02-21T04:17:29;10.02;;;3.05;;
14169;SDS011;63889;50.596;8.690;2024-02-21T04:20:02;18.05;;;3.35;;
14169;SDS011;63889;50.596;8.690;2024-02-21T04:22:30;8.05;;;3.13;;
14169;SDS011;63889;50.596;8.690;2024-02-21T04:24:57;9.45;;;2.60;;
14169;SDS011;63889;50.596;8.690;2024-02-21T04:27:24;8.32;;;2.97;;
14169;SDS011;63889;50.596;8.690;2024-02-21T04:29:50;13.68;;;3.40;;
14169;SDS011;63889;50.596;8.690;2024-02-21T04:32:15;12.45;;;2.92;;
14169;SDS011;63889;50.596;8.690;2024-02-21T04:34:41;9.35;;;3.30;;
14169;SDS011;63889;50.596;8.690;2024-02-21T04:37:06;8.02;;;2.95;;
14169;SDS011;63889;50.596;8.690;2024-02-21T04:39:32;11.82;;;3.00;;
14169;SDS011;63889;50.596;8.690;2024-02-21T04:41:57;12.15;;;3.25;;
14169;SDS011;63889;50.596;8.690;2024-02-21T04:44:23;7.80;;;3.10;;
14169;SDS011;63889;50.596;8.690;2024-02-21T04:46:48;6.15;;;2.60;;
14169;SDS011;63889;50.596;8.690;2024-02-21T04:49:14;12.57;;;3.67;;
14169;SDS011;63889;50.596;8.690;2024-02-21T04:51:40;10.63;;;3.08;;
14169;SDS011;63889;50.596;8.690;2024-02-21T04:54:06;10.75;;;2.70;;
14169;SDS011;63889;50.596;8.690;2024-02-21T04:56:31;9.07;;;2.90;;
14169;SDS011;63889;50.596;8.690;2024-02-21T04:58:57;7.85;;;3.42;;
14169;SDS011;63889;50.596;8.690;2024-02-21T05:01:22;16.10;;;3.60;;
14169;SDS011;63889;50.596;8.690;2024-02-21T05:03:48;12.18;;;3.30;;
14169;SDS011;63889;50.596;8.690;2024-02-21T05:06:14;12.73;;;3.50;;
14169;SDS011;63889;50.596;8.690;2024-02-21T05:08:40;13.35;;;2.42;;
14169;SDS011;63889;50.596;8.690;2024-02-21T05:11:05;8.05;;;2.45;;
14169;SDS011;63889;50.596;8.690;2024-02-21T05:13:31;12.25;;;2.50;;
14169;SDS011;63889;50.596;8.690;2024-02-21T05:15:56;10.30;;;2.35;;
14169;SDS011;63889;50.596;8.690;2024-02-21T05:18:22;12.73;;;3.03;;
14169;SDS011;63889;50.596;8.690;2024-02-21T05:20:47;7.40;;;2.55;;
14169;SDS011;63889;50.596;8.690;2024-02-21T05:23:13;15.52;;;3.00;;
14169;SDS011;63889;50.596;8.690;2024-02-21T05:25:38;7.80;;;3.15;;
14169;SDS011;63889;50.596;8.690;2024-02-21T05:28:04;11.68;;;2.95;;
14169;SDS011;63889;50.596;8.690;2024-02-21T05:30:31;6.85;;;2.50;;
14169;SDS011;63889;50.596;8.690;2024-02-21T05:32:56;8.02;;;2.85;;
14169;SDS011;63889;50.596;8.690;2024-02-21T05:35:28;12.27;;;3.00;;
14169;SDS011;63889;50.596;8.690;2024-02-21T05:37:54;4.97;;;2.38;;
14169;SDS011;63889;50.596;8.690;2024-02-21T05:40:19;11.35;;;2.58;;
14169;SDS011;63889;50.596;8.690;2024-02-21T05:42:45;16.15;;;3.45;;
14169;SDS011;63889;50.596;8.690;2024-02-21T05:45:10;8.52;;;2.90;;
14169;SDS011;63889;50.596;8.690;2024-02-21T05:47:36;12.20;;;3.40;;
14169;SDS011;63889;50.596;8.690;2024-02-21T05:50:01;16.50;;;3.85;;
14169;SDS011;63889;50.596;8.690;2024-02-21T05:52:27;6.43;;;2.13;;
14169;SDS011;63889;50.596;8.690;2024-02-21T05:54:53;8.30;;;2.20;;
14169;SDS011;63889;50.596;8.690;2024-02-21T05:57:18;8.27;;;3.10;;
14169;SDS011;63889;50.596;8.690;2024-02-21T05:59:44;12.25;;;2.38;;
14169;SDS011;63889;50.596;8.690;2024-02-21T06:02:09;8.07;;;2.60;;
14169;SDS011;63889;50.596;8.690;2024-02-21T06:04:35;9.88;;;2.42;;
14169;SDS011;63889;50.596;8.690;2024-02-21T06:07:01;7.53;;;2.22;;
14169;SDS011;63889;50.596;8.690;2024-02-21T06:09:27;10.95;;;2.88;;
14169;SDS011;63889;50.596;8.690;2024-02-21T06:11:53;10.27;;;2.90;;
14169;SDS011;63889;50.596;8.690;2024-02-21T06:14:19;12.85;;;2.75;;
14169;SDS011;63889;50.596;8.690;2024-02-21T06:16:45;16.52;;;2.78;;
14169;SDS011;63889;50.596;8.690;2024-02-21T06:19:10;9.00;;;2.38;;
14169;SDS011;63889;50.596;8.690;2024-02-21T06:21:36;13.25;;;2.13;;
14169;SDS011;63889;50.596;8.690;2024-02-21T06:24:02;10.98;;;2.70;;
14169;SDS011;63889;50.596;8.690;2024-02-21T06:26:28;14.32;;;2.90;;
14169;SDS011;63889;50.596;8.690;2024-02-21T06:28:53;6.93;;;2.30;;
14169;SDS011;63889;50.596;8.690;2024-02-21T06:31:19;8.20;;;2.85;;
14169;SDS011;63889;50.596;8.690;2024-02-21T06:33:44;7.07;;;2.80;;
14169;SDS011;63889;50.596;8.690;2024-02-21T06:36:10;7.03;;;2.20;;
14169;SDS011;63889;50.596;8.690;2024-02-21T06:38:35;6.93;;;2.45;;
14169;SDS011;63889;50.596;8.690;2024-02-21T06:41:01;14.00;;;2.95;;
14169;SDS011;63889;50.596;8.690;2024-02-21T06:43:27;10.82;;;3.38;;
14169;SDS011;63889;50.596;8.690;2024-02-21T06:45:53;11.35;;;2.50;;
14169;SDS011;63889;50.596;8.690;2024-02-21T06:48:20;6.57;;;2.55;;
14169;SDS011;63889;50.596;8.690;2024-02-21T06:50:45;11.38;;;3.10;;
14169;SDS011;63889;50.596;8.690;2024-02-21T06:53:11;9.57;;;3.25;;
14169;SDS011;63889;50.596;8.690;2024-02-21T06:55:37;9.13;;;2.70;;
14169;SDS011;63889;50.596;8.690;2024-02-21T06:58:02;7.80;;;2.63;;
14169;SDS011;63889;50.596;8.690;2024-02-21T07:00:28;12.85;;;3.05;;
14169;SDS011;63889;50.596;8.690;2024-02-21T07:02:54;9.77;;;2.72;;
14169;SDS011;63889;50.596;8.690;2024-02-21T07:05:20;7.07;;;2.20;;
14169;SDS011;63889;50.596;8.690;2024-02-21T07:07:45;11.38;;;3.38;;
14169;SDS011;63889;50.596;8.690;2024-02-21T07:10:11;16.67;;;4.43;;
14169;SDS011;63889;50.596;8.690;2024-02-21T07:12:37;18.25;;;4.97;;
14169;SDS011;63889;50.596;8.690;2024-02-21T07:15:08;10.77;;;3.53;;
14169;SDS011;63889;50.596;8.690;2024-02-21T07:17:34;16.00;;;4.50;;
14169;SDS011;63889;50.596;8.690;2024-02-21T07:19:59;16.15;;;4.88;;
14169;SDS011;63889;50.596;8.690;2024-02-21T07:22:26;10.27;;;2.70;;
14169;SDS011;63889;50.596;8.690;2024-02-21T07:24:51;9.80;;;3.00;;
14169;SDS011;63889;50.596;8.690;2024-02-21T07:27:17;10.50;;;2.53;;
14169;SDS011;63889;50.596;8.690;2024-02-21T07:29:42;8.15;;;2.85;;
14169;SDS011;63889;50.596;8.690;2024-02-21T07:32:12;14.45;;;4.00;;
14169;SDS011;63889;50.596;8.690;2024-02-21T07:34:38;7.95;;;2.90;;
14169;SDS011;63889;50.596;8.690;2024-02-21T07:37:03;8.18;;;2.22;;
14169;SDS011;63889;50.596;8.690;2024-02-21T07:39:29;10.35;;;2.75;;
14169;SDS011;63889;50.596;8.690;2024-02-21T07:41:54;8.07;;;2.67;;
14169;SDS011;63889;50.596;8.690;2024-02-21T07:44:20;10.77;;;3.53;;
14169;SDS011;63889;50.596;8.690;2024-02-21T07:46:45;8.82;;;2.63;;
14169;SDS011;63889;50.596;8.690;2024-02-21T07:49:11;10.40;;;2.67;;
14169;SDS011;63889;50.596;8.690;2024-02-21T07:51:36;7.55;;;2.65;;
14169;SDS011;63889;50.596;8.690;2024-02-21T07:54:02;9.98;;;3.20;;
14169;SDS011;63889;50.596;8.690;2024-02-21T07:56:29;6.78;;;2.63;;
14169;SDS011;63889;50.596;8.690;2024-02-21T07:58:56;8.65;;;2.60;;
14169;SDS011;63889;50.596;8.690;2024-02-21T08:01:21;9.23;;;2.53;;
14169;SDS011;63889;50.596;8.690;2024-02-21T08:03:47;5.82;;;2.22;;
14169;SDS011;63889;50.596;8.690;2024-02-21T08:06:13;9.30;;;3.25;;
14169;SDS011;63889;50.596;8.690;2024-02-21T08:08:39;12.25;;;3.00;;
14169;SDS011;63889;50.596;8.690;2024-02-21T08:11:04;9.68;;;2.20;;
14169;SDS011;63889;50.596;8.690;2024-02-21T08:13:30;9.98;;;3.15;;
14169;SDS011;63889;50.596;8.690;2024-02-21T08:15:56;9.43;;;2.50;;
14169;SDS011;63889;50.596;8.690;2024-02-21T08:18:22;11.13;;;2.85;;
14169;SDS011;63889;50.596;8.690;2024-02-21T08:20:48;6.78;;;2.35;;
14169;SDS011;63889;50.596;8.690;2024-02-21T08:23:15;10.70;;;3.05;;
14169;SDS011;63889;50.596;8.690;2024-02-21T08:25:42;11.82;;;2.92;;
14169;SDS011;63889;50.596;8.690;2024-02-21T08:28:07;5.88;;;2.45;;
14169;SDS011;63889;50.596;8.690;2024-02-21T08:30:33;12.35;;;3.88;;
14169;SDS011;63889;50.596;8.690;2024-02-21T08:32:59;9.77;;;2.58;;
14169;SDS011;63889;50.596;8.690;2024-02-21T08:35:24;6.25;;;2.55;;
14169;SDS011;63889;50.596;8.690;2024-02-21T08:37:50;9.60;;;2.63;;
14169;SDS011;63889;50.596;8.690;2024-02-21T08:40:15;11.60;;;2.20;;
14169;SDS011;63889;50.596;8.690;2024-02-21T08:42:44;11.27;;;2.40;;
14169;SDS011;63889;50.596;8.690;2024-02-21T08:45:10;6.65;;;2.42;;
14169;SDS011;63889;50.596;8.690;2024-02-21T08:47:36;12.40;;;3.20;;
14169;SDS011;63889;50.596;8.690;2024-02-21T08:50:04;11.98;;;2.33;;
14169;SDS011;63889;50.596;8.690;2024-02-21T08:52:30;9.50;;;3.03;;
14169;SDS011;63889;50.596;8.690;2024-02-21T08:54:56;8.60;;;2.75;;
14169;SDS011;63889;50.596;8.690;2024-02-21T08:57:22;11.77;;;2.45;;
14169;SDS011;63889;50.596;8.690;2024-02-21T08:59:47;11.93;;;2.58;;
14169;SDS011;63889;50.596;8.690;2024-02-21T09:02:13;11.63;;;2.60;;
14169;SDS011;63889;50.596;8.690;2024-02-21T09:04:41;20.92;;;3.03;;
14169;SDS011;63889;50.596;8.690;2024-02-21T09:07:06;6.30;;;2.25;;
14169;SDS011;63889;50.596;8.690;2024-02-21T09:09:32;19.60;;;3.10;;
14169;SDS011;63889;50.596;8.690;2024-02-21T09:11:58;8.75;;;2.72;;
14169;SDS011;63889;50.596;8.690;2024-02-21T09:14:30;6.07;;;2.80;;
14169;SDS011;63889;50.596;8.690;2024-02-21T09:16:59;12.82;;;3.33;;
14169;SDS011;63889;50.596;8.690;2024-02-21T09:19:24;7.40;;;2.10;;
14169;SDS011;63889;50.596;8.690;2024-02-21T09:21:50;6.25;;;2.50;;
14169;SDS011;63889;50.596;8.690;2024-02-21T09:24:16;13.02;;;3.13;;
14169;SDS011;63889;50.596;8.690;2024-02-21T09:26:42;8.63;;;2.78;;
14169;SDS011;63889;50.596;8.690;2024-02-21T09:29:07;14.52;;;2.90;;
14169;SDS011;63889;50.596;8.690;2024-02-21T09:31:33;11.50;;;2.55;;
14169;SDS011;63889;50.596;8.690;2024-02-21T09:33:59;9.80;;;2.60;;
14169;SDS011;63889;50.596;8.690;2024-02-21T09:36:24;7.30;;;1.92;;
14169;SDS011;63889;50.596;8.690;2024-02-21T09:38:50;7.57;;;2.67;;
14169;SDS011;63889;50.596;8.690;2024-02-21T09:41:22;5.47;;;2.28;;
14169;SDS011;63889;50.596;8.690;2024-02-21T09:43:51;10.50;;;2.92;;
14169;SDS011;63889;50.596;8.690;2024-02-21T09:46:18;12.25;;;2.95;;
14169;SDS011;63889;50.596;8.690;2024-02-21T09:51:31;8.57;;;2.72;;
14169;SDS011;63889;50.596;8.690;2024-02-21T09:53:59;13.30;;;2.53;;
14169;SDS011;63889;50.596;8.690;2024-02-21T09:56:25;12.90;;;2.78;;
14169;SDS011;63889;50.596;8.690;2024-02-21T09:58:50;6.32;;;2.35;;
14169;SDS011;63889;50.596;8.690;2024-02-21T10:01:16;10.48;;;2.90;;
14169;SDS011;63889;50.596;8.690;2024-02-21T10:03:42;9.50;;;2.50;;
14169;SDS011;63889;50.596;8.690;2024-02-21T10:06:08;8.85;;;2.28;;
14169;SDS011;63889;50.596;8.690;2024-02-21T10:08:35;13.40;;;3.30;;
14169;SDS011;63889;50.596;8.690;2024-02-21T10:11:00;11.00;;;2.83;;
14169;SDS011;63889;50.596;8.690;2024-02-21T10:13:28;8.38;;;2.95;;
14169;SDS011;63889;50.596;8.690;2024-02-21T10:16:04;9.38;;;2.80;;
14169;SDS011;63889;50.596;8.690;2024-02-21T10:18:31;7.90;;;3.35;;
14169;SDS011;63889;50.596;8.690;2024-02-21T10:23:29;10.02;;;2.95;;
14169;SDS011;63889;50.596;8.690;2024-02-21T10:26:04;9.63;;;2.58;;
14169;SDS011;63889;50.596;8.690;2024-02-21T10:28:31;8.82;;;2.88;;
14169;SDS011;63889;50.596;8.690;2024-02-21T10:30:56;9.10;;;2.90;;
14169;SDS011;63889;50.596;8.690;2024-02-21T10:33:22;7.78;;;2.22;;
14169;SDS011;63889;50.596;8.690;2024-02-21T10:35:49;6.38;;;2.30;;
14169;SDS011;63889;50.596;8.690;2024-02-21T10:38:14;8.35;;;2.10;;
14169;SDS011;63889;50.596;8.690;2024-02-21T10:40:40;10.88;;;3.45;;
14169;SDS011;63889;50.596;8.690;2024-02-21T10:43:06;3.72;;;1.90;;
14169;SDS011;63889;50.596;8.690;2024-02-21T10:45:37;8.10;;;1.98;;
14169;SDS011;63889;50.596;8.690;2024-02-21T10:48:14;9.52;;;2.33;;
14169;SDS011;63889;50.596;8.690;2024-02-21T10:53:57;7.72;;;2.75;;
14169;SDS011;63889;50.596;8.690;2024-02-21T10:56:34;10.43;;;2.38;;
14169;SDS011;63889;50.596;8.690;2024-02-21T10:59:06;7.32;;;2.20;;
14169;SDS011;63889;50.596;8.690;2024-02-21T11:01:32;6.72;;;1.95;;
14169;SDS011;63889;50.596;8.690;2024-02-21T11:04:04;14.77;;;2.10;;
14169;SDS011;63889;50.596;8.690;2024-02-21T11:06:31;7.28;;;2.13;;
14169;SDS011;63889;50.596;8.690;2024-02-21T11:09:04;8.65;;;2.35;;
14169;SDS011;63889;50.596;8.690;2024-02-21T11:11:34;9.60;;;2.20;;
14169;SDS011;63889;50.596;8.690;2024-02-21T11:14:04;8.13;;;1.73;;
14169;SDS011;63889;50.596;8.690;2024-02-21T11:16:42;5.28;;;2.17;;
14169;SDS011;63889;50.596;8.690;2024-02-21T11:19:08;7.63;;;1.80;;
14169;SDS011;63889;50.596;8.690;2024-02-21T11:21:43;7.03;;;1.80;;
14169;SDS011;63889;50.596;8.690;2024-02-21T11:24:09;12.77;;;2.67;;
14169;SDS011;63889;50.596;8.690;2024-02-21T11:26:36;4.60;;;2.00;;
14169;SDS011;63889;50.596;8.690;2024-02-21T11:29:02;10.40;;;2.28;;
14169;SDS011;63889;50.596;8.690;2024-02-21T11:31:40;7.53;;;2.13;;
14169;SDS011;63889;50.596;8.690;2024-02-21T11:34:10;7.15;;;2.03;;
14169;SDS011;63889;50.596;8.690;2024-02-21T11:36:36;4.78;;;1.70;;
14169;SDS011;63889;50.596;8.690;2024-02-21T11:39:11;11.70;;;2.53;;
14169;SDS011;63889;50.596;8.690;2024-02-21T11:41:36;8.30;;;1.90;;
14169;SDS011;63889;50.596;8.690;2024-02-21T11:44:02;9.00;;;2.03;;
14169;SDS011;63889;50.596;8.690;2024-02-21T11:46:28;6.38;;;2.80;;
14169;SDS011;63889;50.596;8.690;2024-02-21T11:48:54;3.90;;;1.98;;
14169;SDS011;63889;50.596;8.690;2024-02-21T11:51:27;5.30;;;1.50;;
14169;SDS011;63889;50.596;8.690;2024-02-21T11:53:52;9.82;;;2.30;;
14169;SDS011;63889;50.596;8.690;2024-02-21T11:56:18;5.68;;;2.33;;
14169;SDS011;63889;50.596;8.690;2024-02-21T11:58:45;14.38;;;2.25;;
14169;SDS011;63889;50.596;8.690;2024-02-21T12:01:12;8.60;;;1.98;;
14169;SDS011;63889;50.596;8.690;2024-02-21T12:03:38;4.85;;;1.92;;
14169;SDS011;63889;50.596;8.690;2024-02-21T12:06:06;9.07;;;2.13;;
14169;SDS011;63889;50.596;8.690;2024-02-21T12:08:42;7.32;;;1.85;;
14169;SDS011;63889;50.596;8.690;2024-02-21T12:11:21;11.23;;;2.08;;
14169;SDS011;63889;50.596;8.690;2024-02-21T12:14:02;8.02;;;2.13;;
14169;SDS011;63889;50.596;8.690;2024-02-21T12:16:30;7.03;;;2.67;;
14169;SDS011;63889;50.596;8.690;2024-02-21T12:18:57;7.47;;;2.78;;
14169;SDS011;63889;50.596;8.690;2024-02-21T12:21:24;4.25;;;1.77;;
14169;SDS011;63889;50.596;8.690;2024-02-21T12:23:58;12.20;;;2.15;;
14169;SDS011;63889;50.596;8.690;2024-02-21T12:26:24;9.02;;;2.25;;
14169;SDS011;63889;50.596;8.690;2024-02-21T12:28:50;10.55;;;2.47;;
14169;SDS011;63889;50.596;8.690;2024-02-21T12:31:16;10.35;;;2.60;;
14169;SDS011;63889;50.596;8.690;2024-02-21T12:33:44;7.28;;;2.20;;
14169;SDS011;63889;50.596;8.690;2024-02-21T12:36:10;7.30;;;2.28;;
14169;SDS011;63889;50.596;8.690;2024-02-21T12:38:36;10.35;;;2.30;;
14169;SDS011;63889;50.596;8.690;2024-02-21T12:41:02;7.40;;;2.33;;
14169;SDS011;63889;50.596;8.690;2024-02-21T12:43:28;8.10;;;2.85;;
14169;SDS011;63889;50.596;8.690;2024-02-21T12:45:54;9.18;;;3.78;;
14169;SDS011;63889;50.596;8.690;2024-02-21T12:48:19;4.95;;;2.50;;
14169;SDS011;63889;50.596;8.690;2024-02-21T12:50:49;7.55;;;3.00;;
14169;SDS011;63889;50.596;8.690;2024-02-21T12:53:16;4.90;;;2.35;;
14169;SDS011;63889;50.596;8.690;2024-02-21T12:55:44;8.10;;;2.50;;
14169;SDS011;63889;50.596;8.690;2024-02-21T12:58:10;7.03;;;2.65;;
14169;SDS011;63889;50.596;8.690;2024-02-21T13:00:36;8.95;;;2.60;;
14169;SDS011;63889;50.596;8.690;2024-02-21T13:03:02;11.02;;;3.25;;
14169;SDS011;63889;50.596;8.690;2024-02-21T13:05:28;6.38;;;2.22;;
14169;SDS011;63889;50.596;8.690;2024-02-21T13:07:54;7.50;;;2.83;;
14169;SDS011;63889;50.596;8.690;2024-02-21T13:10:19;6.95;;;2.83;;
14169;SDS011;63889;50.596;8.690;2024-02-21T13:12:46;9.02;;;2.95;;
14169;SDS011;63889;50.596;8.690;2024-02-21T13:15:12;6.63;;;2.53;;
14169;SDS011;63889;50.596;8.690;2024-02-21T13:17:37;7.28;;;2.65;;
14169;SDS011;63889;50.596;8.690;2024-02-21T13:20:03;8.93;;;2.88;;
14169;SDS011;63889;50.596;8.690;2024-02-21T13:22:29;6.95;;;2.53;;
14169;SDS011;63889;50.596;8.690;2024-02-21T13:24:55;11.30;;;3.45;;
14169;SDS011;63889;50.596;8.690;2024-02-21T13:27:20;9.52;;;2.50;;
14169;SDS011;63889;50.596;8.690;2024-02-21T13:29:46;12.98;;;2.83;;
14169;SDS011;63889;50.596;8.690;2024-02-21T13:32:11;10.63;;;2.20;;
14169;SDS011;63889;50.596;8.690;2024-02-21T13:34:37;9.68;;;3.63;;
14169;SDS011;63889;50.596;8.690;2024-02-21T13:37:02;8.25;;;2.30;;
14169;SDS011;63889;50.596;8.690;2024-02-21T13:39:29;7.00;;;2.47;;
14169;SDS011;63889;50.596;8.690;2024-02-21T13:41:55;6.93;;;2.38;;
14169;SDS011;63889;50.596;8.690;2024-02-21T13:44:20;9.23;;;2.35;;
14169;SDS011;63889;50.596;8.690;2024-02-21T13:46:46;6.20;;;2.50;;
14169;SDS011;63889;50.596;8.690;2024-02-21T13:49:11;7.28;;;2.20;;
14169;SDS011;63889;50.596;8.690;2024-02-21T13:51:37;9.93;;;2.47;;
14169;SDS011;63889;50.596;8.690;2024-02-21T13:54:03;11.00;;;2.00;;
14169;SDS011;63889;50.596;8.690;2024-02-21T13:56:29;6.38;;;2.40;;
14169;SDS011;63889;50.596;8.690;2024-02-21T13:58:55;7.22;;;2.85;;
14169;SDS011;63889;50.596;8.690;2024-02-21T14:01:22;8.20;;;2.25;;
14169;SDS011;63889;50.596;8.690;2024-02-21T14:03:48;6.97;;;1.50;;
14169;SDS011;63889;50.596;8.690;2024-02-21T14:06:13;4.90;;;1.80;;
14169;SDS011;63889;50.596;8.690;2024-02-21T14:08:39;3.97;;;1.45;;
14169;SDS011;63889;50.596;8.690;2024-02-21T14:11:05;3.33;;;1.63;;
14169;SDS011;63889;50.596;8.690;2024-02-21T14:13:33;5.93;;;1.83;;
14169;SDS011;63889;50.596;8.690;2024-02-21T14:15:59;10.00;;;3.00;;
14169;SDS011;63889;50.596;8.690;2024-02-21T14:18:24;6.78;;;2.17;;
14169;SDS011;63889;50.596;8.690;2024-02-21T14:20:50;7.65;;;2.00;;
14169;SDS011;63889;50.596;8.690;2024-02-21T14:23:15;6.63;;;2.28;;
14169;SDS011;63889;50.596;8.690;2024-02-21T14:25:41;8.45;;;2.30;;
14169;SDS011;63889;50.596;8.690;2024-02-21T14:28:07;11.15;;;1.85;;
14169;SDS011;63889;50.596;8.690;2024-02-21T14:30:34;8.50;;;2.08;;
14169;SDS011;63889;50.596;8.690;2024-02-21T14:33:00;6.82;;;2.00;;
14169;SDS011;63889;50.596;8.690;2024-02-21T14:35:25;11.70;;;2.72;;
14169;SDS011;63889;50.596;8.690;2024-02-21T14:37:51;8.00;;;2.92;;
14169;SDS011;63889;50.596;8.690;2024-02-21T14:40:18;6.28;;;2.40;;
14169;SDS011;63889;50.596;8.690;2024-02-21T14:42:44;8.75;;;2.53;;
14169;SDS011;63889;50.596;8.690;2024-02-21T14:45:11;6.18;;;2.00;;